aviador You're here:

LFOB Decoded Metar

BEAUVAIS in FRANCE
Report Time2017-08-20 18:30:00
UTC Time2017-08-20 19:04:49
Flight Rules vfr VFR
Wind350° at 03 kt
W.Decomp.*RWY 30: 1.9 kt HW 2.3 kt RCW
RWY 04: 2.0 kt HW 2.3 kt LCW
W.Rank350° ranks 18
Current wind is below 350° avg. (6.4)
Visibility9999 m
Phenomena:N/A
Clouds:N/A
Expected CloudBase > 3,200 ft AGL from Temp-Dew spread
CeilingNone
Temp18°C (ISA +4)
Dew Point10°C (60% RH)
AAT17.0°C
QNH1024 hPa
Density Alt597 ft
Elevation364 ft
Report Wrong Elevation
Raw Report
LFOB 201830Z AUTO 35003KT CAVOK 18/10 Q1024 NOSIG=

Extra information for LFOB:More info

Metar Taf Metar & Taf Last 4 Metars F.Rules Stats Wind Profile Meteogram Temp Stats Airport Information Weather charts Add Link Nearby VenuesMetar ALERT Operation Metar Decoded Social comments